Huvudsida
METAR-TAF:

METAR-TAF

Flygplatser :

Yazd flygplats

Yazd, Iran

latitud: 31-54N, longitud: 054-24E, höjd: 1238 m

Aktuellt väderrapport

Denna rapport gjordes för 57 minuter sedan, klockan 23:00 UTC
Vind 2 kt från syd
Temperatur 3°C
Fuktighet 23%
Tryck 1021 hPa
Sikt 10 km eller mer
Inga moln under 1 500 m eller inga cumulonimbus

METAR: OIYY 152300Z 18002KT CAVOK 03/M16 Q1021

Tid: 03:27 (23:57 UTC)


TAF: saknas

Aktuella väderrapporter och prognoser från 4000 flygplatser (METAR- och TAF-rapporter).

De tillgängliga stationerna syns som gula och röda prickar på kartan.

För musen över prickarna för att se namnen på stationerna.

Klicka sedan för att få väderrapporter och prognoser.

För att ändra kartan: Klicka på de gröna knapparna med ett svart kors på för att zooma in; den gröna knappen med ett streck på för att zooma ut; eller på de gröna pilarna för angränsande kartor.


METAR-TAF: